Accueil
METAR-TAF:

METAR-TAF

Aéroports :

Base aérienne 123 Orléans-Bricy

Orléans, France

latitude: 47-59N, longitude: 001-45E, altitude: 126 m

Observation

Le bulletin a été fait il y a 23 minutes, à 20:00 UTC
Vent 3 kt de est/sud-est
Température 11°C
Humidité 71%
Pression 1017 hPa
Visibilité 10 km ou plus
pas de nuages en-dessous de 1500 mètres et pas de cumulonimbus.

METAR: LFOJ 072000Z AUTO 12003KT CAVOK 11/06 Q1017

Heure: 22:23 (20:23 UTC)

Prévision

Le bulletin a été fait il y a 6 heures et 23 minutes, à 14:00 UTC
Prévision valable du 07 à 15 UTC au 08 à 15 UTC
Vent 6 kt de ouest/sud-ouest
Visibilité 10 km ou plus
pas de nuages en-dessous de 1500 mètres et pas de cumulonimbus.
Evoluant progressivement
du 08 à 10 UTC au 08 à 12 UTC
Vent 17 kt de sud/sud-ouest

TAF: LFOJ 071400Z 0715/0815 24006KT CAVOK TX22/0815Z TN08/0801Z BECMG 0810/0812 21017KT

Observations et prévisions météorologiques de plus de 4000 aéroports (messages METAR et TAF).

Les stations disponibles sont représentées par des disques jaunes et rouges sur la carte.

Passer la souris dessus pour voir le nom de la station.

Cliquer dessus pour voir les observations et prévisions météorologiques.

Pour changer de carte: cliquez sur les boutons verts avec une croix noire pour zoomer, sur le bouton vert avec un tiret pour effectuer un zoom arrière, ou sur les flèches vertes pour les cartes adjacentes.


METAR-TAF: